首页
METAR-TAF:

METAR-TAF

机场 :

喬治皇子城機場

乔治王子城, 不列颠哥伦比亚, 加拿大

纬度: 53-53N, 经度: 122-41W, 海拔: 691米

当前天气观测

该预报发布于1小时和7分钟前的17:00 UTC
风速8节,风向西南,在西转西南之间变化
温度 13°C
湿度 67%
气压 1018 hPa
能見度: 14.5公里
多云层高于3400英尺
阴天层高于4000英尺

METAR: CYXS 081700Z AUTO 22008KT 170V240 9SM BKN034 OVC040 13/07 A3007 RMK SLP196 DENSITY ALT 2300FT

时间: 11:07 (18:07 UTC)

预报

该预报发布于5小时和29分钟前的12:38 UTC
预报有效从08日的 13点(UTC)到 09日的 01点(UTC)
风速6节,风向西南
能見度: 10公里
散云层高于4000英尺
从 08日的 1500点(UTC)
风速10节,风向南转西南
能見度: 10公里
多云层高于4000英尺
短暂存在
从 08日的 15点(UTC)到 08日的 19点(UTC)
能見度: 8.0公里
小阵雨, 轻雾
成为
从 08日的 15点(UTC)到 08日的 17点(UTC)
风速12节,风向西转西南
从 08日的 1900点(UTC)
风速14节,风向西
能見度: 10公里
多云层高于6000英尺
短暂存在
从 08日的 19点(UTC)到 09日的 01点(UTC)
能見度: 10公里
多云层高于6000英尺, 积雨云.
小阵雨, 附近有雷暴

TAF: CYXS 081238Z 0813/0901 23006KT P6SM SCT040 FM081500 20010KT P6SM BKN040 TEMPO 0815/0819 5SM -SHRA BR BECMG 0815/0817 24012KT FM081900 27014KT P6SM BKN060 TEMPO 0819/0901 P6SM -SHRA VCTS BKN060CB RMK FCST BASED ON AUTO OBS. NXT FCST BY 081900Z

超过4000个机场的气象观测和天气预报(METAR&TAF报告)。

可查询的气象台以黄色和红色小点在地图上表示。

将鼠标移到小点上方,可查看气象台名称。

然后点击查看天气观测和预报。

如需切换地图:点击带黑十字的绿色按钮放大地图;点击带横线的绿色按钮缩小地图;或者点击绿色箭头查看邻近地区的地图。


METAR-TAF: